sensor_id;sensor_type;location;lat;lon;timestamp;P1;durP1;ratioP1;P2;durP2;ratioP2
75649;SDS011;64245;51.282;22.494;2024-03-29T00:01:23;2.58;;;1.13;;
75649;SDS011;64245;51.282;22.494;2024-03-29T00:03:52;3.30;;;1.10;;
75649;SDS011;64245;51.282;22.494;2024-03-29T00:06:19;2.08;;;1.00;;
75649;SDS011;64245;51.282;22.494;2024-03-29T00:08:45;1.75;;;0.50;;
75649;SDS011;64245;51.282;22.494;2024-03-29T00:11:12;4.15;;;1.13;;
75649;SDS011;64245;51.282;22.494;2024-03-29T00:13:38;1.58;;;1.05;;
75649;SDS011;64245;51.282;22.494;2024-03-29T00:16:04;2.47;;;1.20;;
75649;SDS011;64245;51.282;22.494;2024-03-29T00:18:30;1.15;;;1.00;;
75649;SDS011;64245;51.282;22.494;2024-03-29T00:20:56;3.13;;;1.20;;
75649;SDS011;64245;51.282;22.494;2024-03-29T00:23:22;0.93;;;0.70;;
75649;SDS011;64245;51.282;22.494;2024-03-29T00:25:48;1.13;;;0.57;;
75649;SDS011;64245;51.282;22.494;2024-03-29T00:28:14;1.05;;;0.68;;
75649;SDS011;64245;51.282;22.494;2024-03-29T00:30:40;1.63;;;0.90;;
75649;SDS011;64245;51.282;22.494;2024-03-29T00:33:06;2.75;;;0.80;;
75649;SDS011;64245;51.282;22.494;2024-03-29T00:35:32;2.20;;;1.13;;
75649;SDS011;64245;51.282;22.494;2024-03-29T00:37:58;2.85;;;0.85;;
75649;SDS011;64245;51.282;22.494;2024-03-29T00:40:24;1.58;;;0.60;;
75649;SDS011;64245;51.282;22.494;2024-03-29T00:42:50;0.77;;;0.70;;
75649;SDS011;64245;51.282;22.494;2024-03-29T00:45:16;2.35;;;0.88;;
75649;SDS011;64245;51.282;22.494;2024-03-29T00:47:42;1.25;;;0.70;;
75649;SDS011;64245;51.282;22.494;2024-03-29T00:50:08;2.95;;;1.05;;
75649;SDS011;64245;51.282;22.494;2024-03-29T00:52:35;0.60;;;0.60;;
75649;SDS011;64245;51.282;22.494;2024-03-29T00:55:01;3.33;;;0.85;;
75649;SDS011;64245;51.282;22.494;2024-03-29T00:57:28;1.05;;;0.73;;
75649;SDS011;64245;51.282;22.494;2024-03-29T00:59:54;0.85;;;0.60;;
75649;SDS011;64245;51.282;22.494;2024-03-29T01:02:22;4.10;;;1.10;;
75649;SDS011;64245;51.282;22.494;2024-03-29T01:04:49;0.82;;;0.73;;
75649;SDS011;64245;51.282;22.494;2024-03-29T01:07:15;2.25;;;1.05;;
75649;SDS011;64245;51.282;22.494;2024-03-29T01:09:42;1.58;;;0.70;;
75649;SDS011;64245;51.282;22.494;2024-03-29T01:12:09;2.80;;;0.60;;
75649;SDS011;64245;51.282;22.494;2024-03-29T01:14:35;2.72;;;0.80;;
75649;SDS011;64245;51.282;22.494;2024-03-29T01:17:02;1.48;;;0.95;;
75649;SDS011;64245;51.282;22.494;2024-03-29T01:19:28;2.22;;;0.90;;
75649;SDS011;64245;51.282;22.494;2024-03-29T01:21:54;1.52;;;1.00;;
75649;SDS011;64245;51.282;22.494;2024-03-29T01:24:19;4.25;;;1.20;;
75649;SDS011;64245;51.282;22.494;2024-03-29T01:26:46;3.03;;;0.90;;
75649;SDS011;64245;51.282;22.494;2024-03-29T01:29:11;2.47;;;1.63;;
75649;SDS011;64245;51.282;22.494;2024-03-29T01:31:37;1.88;;;1.23;;
75649;SDS011;64245;51.282;22.494;2024-03-29T01:34:03;1.60;;;1.10;;
75649;SDS011;64245;51.282;22.494;2024-03-29T01:36:29;3.05;;;1.60;;
75649;SDS011;64245;51.282;22.494;2024-03-29T01:38:54;2.28;;;1.73;;
75649;SDS011;64245;51.282;22.494;2024-03-29T01:41:23;2.53;;;1.67;;
75649;SDS011;64245;51.282;22.494;2024-03-29T01:43:49;1.33;;;0.95;;
75649;SDS011;64245;51.282;22.494;2024-03-29T01:46:16;1.90;;;1.17;;
75649;SDS011;64245;51.282;22.494;2024-03-29T01:48:48;2.58;;;1.10;;
75649;SDS011;64245;51.282;22.494;2024-03-29T01:51:16;2.33;;;1.67;;
75649;SDS011;64245;51.282;22.494;2024-03-29T01:53:43;2.25;;;0.95;;
75649;SDS011;64245;51.282;22.494;2024-03-29T01:56:10;2.13;;;1.23;;
75649;SDS011;64245;51.282;22.494;2024-03-29T01:58:36;2.45;;;1.50;;
75649;SDS011;64245;51.282;22.494;2024-03-29T02:01:04;5.20;;;2.33;;
75649;SDS011;64245;51.282;22.494;2024-03-29T02:03:32;2.53;;;2.13;;
75649;SDS011;64245;51.282;22.494;2024-03-29T02:05:58;6.00;;;1.98;;
75649;SDS011;64245;51.282;22.494;2024-03-29T02:08:27;4.97;;;2.80;;
75649;SDS011;64245;51.282;22.494;2024-03-29T02:10:54;4.57;;;1.70;;
75649;SDS011;64245;51.282;22.494;2024-03-29T02:13:21;7.43;;;2.63;;
75649;SDS011;64245;51.282;22.494;2024-03-29T02:15:47;4.68;;;2.47;;
75649;SDS011;64245;51.282;22.494;2024-03-29T02:18:13;2.97;;;1.48;;
75649;SDS011;64245;51.282;22.494;2024-03-29T02:20:39;4.00;;;2.35;;
75649;SDS011;64245;51.282;22.494;2024-03-29T02:23:13;3.78;;;1.90;;
75649;SDS011;64245;51.282;22.494;2024-03-29T02:25:43;4.22;;;1.83;;
75649;SDS011;64245;51.282;22.494;2024-03-29T02:28:09;3.03;;;1.92;;
75649;SDS011;64245;51.282;22.494;2024-03-29T02:30:35;3.25;;;2.13;;
75649;SDS011;64245;51.282;22.494;2024-03-29T02:33:01;1.65;;;1.33;;
75649;SDS011;64245;51.282;22.494;2024-03-29T02:35:27;2.85;;;1.58;;
75649;SDS011;64245;51.282;22.494;2024-03-29T02:37:54;4.20;;;2.15;;
75649;SDS011;64245;51.282;22.494;2024-03-29T02:40:20;2.05;;;0.90;;
75649;SDS011;64245;51.282;22.494;2024-03-29T02:42:47;2.88;;;1.10;;
75649;SDS011;64245;51.282;22.494;2024-03-29T02:45:14;3.08;;;1.15;;
75649;SDS011;64245;51.282;22.494;2024-03-29T02:47:43;0.80;;;0.68;;
75649;SDS011;64245;51.282;22.494;2024-03-29T02:50:10;4.15;;;1.35;;
75649;SDS011;64245;51.282;22.494;2024-03-29T02:52:39;1.17;;;0.73;;
75649;SDS011;64245;51.282;22.494;2024-03-29T02:55:05;0.80;;;0.73;;
75649;SDS011;64245;51.282;22.494;2024-03-29T02:57:31;1.48;;;1.08;;
75649;SDS011;64245;51.282;22.494;2024-03-29T02:59:57;0.90;;;0.70;;
75649;SDS011;64245;51.282;22.494;2024-03-29T03:02:23;1.30;;;0.93;;
75649;SDS011;64245;51.282;22.494;2024-03-29T03:04:49;0.50;;;0.50;;
75649;SDS011;64245;51.282;22.494;2024-03-29T03:07:15;1.95;;;1.13;;
75649;SDS011;64245;51.282;22.494;2024-03-29T03:10:00;1.17;;;1.08;;
75649;SDS011;64245;51.282;22.494;2024-03-29T03:12:45;1.83;;;1.10;;
75649;SDS011;64245;51.282;22.494;2024-03-29T03:15:11;2.13;;;0.98;;
75649;SDS011;64245;51.282;22.494;2024-03-29T03:17:36;1.35;;;0.85;;
75649;SDS011;64245;51.282;22.494;2024-03-29T03:20:03;1.23;;;1.13;;
75649;SDS011;64245;51.282;22.494;2024-03-29T03:22:32;0.70;;;0.60;;
75649;SDS011;64245;51.282;22.494;2024-03-29T03:24:58;2.47;;;1.20;;
75649;SDS011;64245;51.282;22.494;2024-03-29T03:27:24;3.40;;;0.90;;
75649;SDS011;64245;51.282;22.494;2024-03-29T03:29:50;2.40;;;1.05;;
75649;SDS011;64245;51.282;22.494;2024-03-29T03:32:16;0.30;;;0.30;;
75649;SDS011;64245;51.282;22.494;2024-03-29T03:34:42;0.98;;;0.93;;
75649;SDS011;64245;51.282;22.494;2024-03-29T03:37:08;1.63;;;1.00;;
75649;SDS011;64245;51.282;22.494;2024-03-29T03:39:34;1.27;;;0.90;;
75649;SDS011;64245;51.282;22.494;2024-03-29T03:42:00;1.02;;;0.90;;
75649;SDS011;64245;51.282;22.494;2024-03-29T03:44:26;1.60;;;1.23;;
75649;SDS011;64245;51.282;22.494;2024-03-29T03:46:54;1.42;;;0.77;;
75649;SDS011;64245;51.282;22.494;2024-03-29T03:49:20;0.98;;;0.95;;
75649;SDS011;64245;51.282;22.494;2024-03-29T03:51:46;1.27;;;0.57;;
75649;SDS011;64245;51.282;22.494;2024-03-29T03:54:12;1.90;;;0.98;;
75649;SDS011;64245;51.282;22.494;2024-03-29T03:56:38;3.28;;;1.58;;
75649;SDS011;64245;51.282;22.494;2024-03-29T03:59:04;0.95;;;0.93;;
75649;SDS011;64245;51.282;22.494;2024-03-29T04:01:29;1.92;;;1.10;;
75649;SDS011;64245;51.282;22.494;2024-03-29T04:03:55;2.30;;;1.15;;
75649;SDS011;64245;51.282;22.494;2024-03-29T04:06:21;2.35;;;1.40;;
75649;SDS011;64245;51.282;22.494;2024-03-29T04:08:47;1.98;;;1.10;;
75649;SDS011;64245;51.282;22.494;2024-03-29T04:11:13;1.05;;;0.80;;
75649;SDS011;64245;51.282;22.494;2024-03-29T04:13:39;1.27;;;1.02;;
75649;SDS011;64245;51.282;22.494;2024-03-29T04:16:06;1.15;;;1.02;;
75649;SDS011;64245;51.282;22.494;2024-03-29T04:18:33;2.80;;;1.30;;
75649;SDS011;64245;51.282;22.494;2024-03-29T04:21:00;2.47;;;0.85;;
75649;SDS011;64245;51.282;22.494;2024-03-29T04:23:27;2.33;;;1.45;;
75649;SDS011;64245;51.282;22.494;2024-03-29T04:25:53;0.93;;;0.93;;
75649;SDS011;64245;51.282;22.494;2024-03-29T04:28:19;1.70;;;0.80;;
75649;SDS011;64245;51.282;22.494;2024-03-29T04:30:55;0.88;;;0.70;;
75649;SDS011;64245;51.282;22.494;2024-03-29T04:33:22;0.68;;;0.60;;
75649;SDS011;64245;51.282;22.494;2024-03-29T04:35:58;3.60;;;1.75;;
75649;SDS011;64245;51.282;22.494;2024-03-29T04:38:29;1.67;;;1.00;;
75649;SDS011;64245;51.282;22.494;2024-03-29T04:40:55;2.53;;;1.13;;
75649;SDS011;64245;51.282;22.494;2024-03-29T04:43:27;0.80;;;0.80;;
75649;SDS011;64245;51.282;22.494;2024-03-29T04:46:10;3.10;;;1.38;;
75649;SDS011;64245;51.282;22.494;2024-03-29T04:48:38;1.55;;;1.45;;
75649;SDS011;64245;51.282;22.494;2024-03-29T04:51:06;1.58;;;1.15;;
75649;SDS011;64245;51.282;22.494;2024-03-29T04:53:35;2.58;;;1.30;;
75649;SDS011;64245;51.282;22.494;2024-03-29T04:56:02;1.80;;;1.17;;
75649;SDS011;64245;51.282;22.494;2024-03-29T04:58:28;2.63;;;1.67;;
75649;SDS011;64245;51.282;22.494;2024-03-29T05:00:54;1.98;;;1.42;;
75649;SDS011;64245;51.282;22.494;2024-03-29T05:03:21;1.38;;;0.73;;
75649;SDS011;64245;51.282;22.494;2024-03-29T05:05:48;5.57;;;0.90;;
75649;SDS011;64245;51.282;22.494;2024-03-29T05:08:15;2.05;;;1.63;;
75649;SDS011;64245;51.282;22.494;2024-03-29T05:10:43;1.25;;;0.85;;
75649;SDS011;64245;51.282;22.494;2024-03-29T05:13:09;1.48;;;0.70;;
75649;SDS011;64245;51.282;22.494;2024-03-29T05:15:35;0.73;;;0.65;;
75649;SDS011;64245;51.282;22.494;2024-03-29T05:18:01;1.90;;;0.88;;
75649;SDS011;64245;51.282;22.494;2024-03-29T05:20:26;1.60;;;0.70;;
75649;SDS011;64245;51.282;22.494;2024-03-29T05:22:53;2.60;;;0.82;;
75649;SDS011;64245;51.282;22.494;2024-03-29T05:25:18;1.58;;;1.17;;
75649;SDS011;64245;51.282;22.494;2024-03-29T05:27:44;4.00;;;0.98;;
75649;SDS011;64245;51.282;22.494;2024-03-29T05:30:10;1.17;;;0.77;;
75649;SDS011;64245;51.282;22.494;2024-03-29T05:32:36;1.13;;;0.63;;
75649;SDS011;64245;51.282;22.494;2024-03-29T05:35:02;0.88;;;0.88;;
75649;SDS011;64245;51.282;22.494;2024-03-29T05:37:28;0.75;;;0.45;;
75649;SDS011;64245;51.282;22.494;2024-03-29T05:39:54;2.10;;;0.90;;
75649;SDS011;64245;51.282;22.494;2024-03-29T05:42:25;0.88;;;0.82;;
75649;SDS011;64245;51.282;22.494;2024-03-29T05:44:52;1.42;;;0.70;;
75649;SDS011;64245;51.282;22.494;2024-03-29T05:47:18;1.95;;;1.08;;
75649;SDS011;64245;51.282;22.494;2024-03-29T05:49:44;1.50;;;1.13;;
75649;SDS011;64245;51.282;22.494;2024-03-29T05:52:10;1.70;;;0.88;;
75649;SDS011;64245;51.282;22.494;2024-03-29T05:57:08;1.95;;;0.93;;
75649;SDS011;64245;51.282;22.494;2024-03-29T05:59:34;0.80;;;0.80;;
75649;SDS011;64245;51.282;22.494;2024-03-29T06:02:01;0.20;;;0.20;;
75649;SDS011;64245;51.282;22.494;2024-03-29T06:04:27;0.38;;;0.35;;
75649;SDS011;64245;51.282;22.494;2024-03-29T06:06:58;0.82;;;0.80;;
75649;SDS011;64245;51.282;22.494;2024-03-29T06:09:27;1.20;;;0.80;;
75649;SDS011;64245;51.282;22.494;2024-03-29T06:11:54;1.30;;;1.20;;
75649;SDS011;64245;51.282;22.494;2024-03-29T06:14:21;1.10;;;1.00;;
75649;SDS011;64245;51.282;22.494;2024-03-29T06:17:08;1.20;;;0.70;;
75649;SDS011;64245;51.282;22.494;2024-03-29T06:22:21;0.75;;;0.65;;
75649;SDS011;64245;51.282;22.494;2024-03-29T06:24:48;1.13;;;0.77;;
75649;SDS011;64245;51.282;22.494;2024-03-29T06:27:17;0.43;;;0.43;;
75649;SDS011;64245;51.282;22.494;2024-03-29T06:29:46;1.13;;;0.80;;
75649;SDS011;64245;51.282;22.494;2024-03-29T06:32:13;0.88;;;0.35;;
75649;SDS011;64245;51.282;22.494;2024-03-29T06:34:39;1.45;;;0.85;;
75649;SDS011;64245;51.282;22.494;2024-03-29T06:37:05;0.25;;;0.22;;
75649;SDS011;64245;51.282;22.494;2024-03-29T06:39:30;0.95;;;0.70;;
75649;SDS011;64245;51.282;22.494;2024-03-29T06:41:57;1.85;;;0.50;;
75649;SDS011;64245;51.282;22.494;2024-03-29T06:44:23;0.73;;;0.73;;
75649;SDS011;64245;51.282;22.494;2024-03-29T06:46:49;0.95;;;0.88;;
75649;SDS011;64245;51.282;22.494;2024-03-29T06:49:14;1.10;;;0.75;;
75649;SDS011;64245;51.282;22.494;2024-03-29T06:51:41;0.20;;;0.20;;
75649;SDS011;64245;51.282;22.494;2024-03-29T06:54:06;1.85;;;1.30;;
75649;SDS011;64245;51.282;22.494;2024-03-29T06:56:33;1.67;;;1.17;;
75649;SDS011;64245;51.282;22.494;2024-03-29T06:58:58;1.05;;;0.80;;
75649;SDS011;64245;51.282;22.494;2024-03-29T07:01:25;0.40;;;0.22;;
75649;SDS011;64245;51.282;22.494;2024-03-29T07:03:50;1.52;;;0.93;;
75649;SDS011;64245;51.282;22.494;2024-03-29T07:06:16;2.28;;;0.90;;
75649;SDS011;64245;51.282;22.494;2024-03-29T07:08:42;0.35;;;0.35;;
75649;SDS011;64245;51.282;22.494;2024-03-29T07:11:08;1.23;;;1.13;;
75649;SDS011;64245;51.282;22.494;2024-03-29T07:13:37;0.70;;;0.57;;
75649;SDS011;64245;51.282;22.494;2024-03-29T07:16:03;1.48;;;0.70;;
75649;SDS011;64245;51.282;22.494;2024-03-29T07:18:29;1.10;;;0.80;;
75649;SDS011;64245;51.282;22.494;2024-03-29T07:20:55;1.15;;;0.80;;
75649;SDS011;64245;51.282;22.494;2024-03-29T07:23:21;0.85;;;0.63;;
75649;SDS011;64245;51.282;22.494;2024-03-29T07:28:42;0.60;;;0.60;;
75649;SDS011;64245;51.282;22.494;2024-03-29T07:31:08;0.90;;;0.80;;
75649;SDS011;64245;51.282;22.494;2024-03-29T07:33:34;0.40;;;0.40;;
75649;SDS011;64245;51.282;22.494;2024-03-29T07:36:02;0.68;;;0.43;;
75649;SDS011;64245;51.282;22.494;2024-03-29T07:38:29;0.88;;;0.77;;
75649;SDS011;64245;51.282;22.494;2024-03-29T07:40:56;0.63;;;0.45;;
75649;SDS011;64245;51.282;22.494;2024-03-29T07:43:22;0.90;;;0.90;;
75649;SDS011;64245;51.282;22.494;2024-03-29T07:45:48;2.05;;;0.63;;
75649;SDS011;64245;51.282;22.494;2024-03-29T07:48:15;0.57;;;0.57;;
75649;SDS011;64245;51.282;22.494;2024-03-29T07:50:42;1.00;;;0.63;;
75649;SDS011;64245;51.282;22.494;2024-03-29T07:53:09;0.60;;;0.50;;
75649;SDS011;64245;51.282;22.494;2024-03-29T07:55:37;3.78;;;0.90;;
75649;SDS011;64245;51.282;22.494;2024-03-29T07:58:04;0.75;;;0.43;;
75649;SDS011;64245;51.282;22.494;2024-03-29T08:00:31;0.82;;;0.75;;
75649;SDS011;64245;51.282;22.494;2024-03-29T08:02:58;1.65;;;0.80;;
75649;SDS011;64245;51.282;22.494;2024-03-29T08:05:24;1.15;;;0.73;;
75649;SDS011;64245;51.282;22.494;2024-03-29T08:07:50;2.17;;;0.50;;
75649;SDS011;64245;51.282;22.494;2024-03-29T08:10:17;0.95;;;0.70;;
75649;SDS011;64245;51.282;22.494;2024-03-29T08:12:42;0.80;;;0.80;;
75649;SDS011;64245;51.282;22.494;2024-03-29T08:15:09;0.45;;;0.30;;
75649;SDS011;64245;51.282;22.494;2024-03-29T08:17:35;1.15;;;0.65;;
75649;SDS011;64245;51.282;22.494;2024-03-29T08:20:02;0.82;;;0.75;;
75649;SDS011;64245;51.282;22.494;2024-03-29T08:22:29;1.70;;;0.95;;
75649;SDS011;64245;51.282;22.494;2024-03-29T08:24:55;0.50;;;0.35;;
75649;SDS011;64245;51.282;22.494;2024-03-29T08:27:21;0.77;;;0.70;;
75649;SDS011;64245;51.282;22.494;2024-03-29T08:29:47;0.98;;;0.70;;
75649;SDS011;64245;51.282;22.494;2024-03-29T08:32:14;0.60;;;0.38;;
75649;SDS011;64245;51.282;22.494;2024-03-29T08:34:41;1.08;;;0.80;;
75649;SDS011;64245;51.282;22.494;2024-03-29T08:37:06;1.38;;;0.75;;
75649;SDS011;64245;51.282;22.494;2024-03-29T08:39:32;1.20;;;0.80;;
75649;SDS011;64245;51.282;22.494;2024-03-29T08:41:59;1.40;;;0.73;;
75649;SDS011;64245;51.282;22.494;2024-03-29T08:44:33;2.53;;;0.98;;
75649;SDS011;64245;51.282;22.494;2024-03-29T08:46:59;1.33;;;0.70;;
75649;SDS011;64245;51.282;22.494;2024-03-29T08:49:29;2.22;;;0.60;;
75649;SDS011;64245;51.282;22.494;2024-03-29T08:51:55;1.00;;;0.50;;
75649;SDS011;64245;51.282;22.494;2024-03-29T08:54:23;1.48;;;0.60;;
75649;SDS011;64245;51.282;22.494;2024-03-29T08:56:48;0.40;;;0.40;;
75649;SDS011;64245;51.282;22.494;2024-03-29T08:59:15;0.45;;;0.38;;
75649;SDS011;64245;51.282;22.494;2024-03-29T09:01:45;1.13;;;0.80;;
75649;SDS011;64245;51.282;22.494;2024-03-29T09:04:11;0.60;;;0.60;;
75649;SDS011;64245;51.282;22.494;2024-03-29T09:06:37;0.60;;;0.40;;
75649;SDS011;64245;51.282;22.494;2024-03-29T09:09:04;1.48;;;0.88;;
75649;SDS011;64245;51.282;22.494;2024-03-29T09:11:31;1.08;;;0.70;;
75649;SDS011;64245;51.282;22.494;2024-03-29T09:13:58;0.90;;;0.47;;
75649;SDS011;64245;51.282;22.494;2024-03-29T09:16:24;1.48;;;0.93;;
75649;SDS011;64245;51.282;22.494;2024-03-29T09:18:51;0.60;;;0.60;;
75649;SDS011;64245;51.282;22.494;2024-03-29T09:21:17;0.85;;;0.65;;
75649;SDS011;64245;51.282;22.494;2024-03-29T09:23:45;1.02;;;0.50;;
75649;SDS011;64245;51.282;22.494;2024-03-29T09:26:11;2.58;;;0.77;;
75649;SDS011;64245;51.282;22.494;2024-03-29T09:28:40;1.10;;;0.70;;
75649;SDS011;64245;51.282;22.494;2024-03-29T09:31:05;0.47;;;0.15;;
75649;SDS011;64245;51.282;22.494;2024-03-29T09:33:31;1.30;;;0.98;;
75649;SDS011;64245;51.282;22.494;2024-03-29T09:35:57;1.02;;;0.50;;
75649;SDS011;64245;51.282;22.494;2024-03-29T09:38:27;0.80;;;0.57;;
75649;SDS011;64245;51.282;22.494;2024-03-29T09:43:44;1.05;;;0.60;;
75649;SDS011;64245;51.282;22.494;2024-03-29T09:46:14;0.60;;;0.40;;
75649;SDS011;64245;51.282;22.494;2024-03-29T09:48:44;1.10;;;0.70;;
75649;SDS011;64245;51.282;22.494;2024-03-29T09:51:14;1.27;;;0.93;;
75649;SDS011;64245;51.282;22.494;2024-03-29T09:53:41;0.80;;;0.65;;
75649;SDS011;64245;51.282;22.494;2024-03-29T09:56:08;2.42;;;0.60;;
75649;SDS011;64245;51.282;22.494;2024-03-29T09:58:37;0.98;;;0.55;;
75649;SDS011;64245;51.282;22.494;2024-03-29T10:01:04;1.20;;;0.40;;
75649;SDS011;64245;51.282;22.494;2024-03-29T10:03:35;1.50;;;0.60;;
75649;SDS011;64245;51.282;22.494;2024-03-29T10:06:05;0.80;;;0.75;;
75649;SDS011;64245;51.282;22.494;2024-03-29T10:08:38;2.78;;;0.70;;
75649;SDS011;64245;51.282;22.494;2024-03-29T10:11:04;1.80;;;0.70;;
75649;SDS011;64245;51.282;22.494;2024-03-29T10:13:30;0.68;;;0.55;;
75649;SDS011;64245;51.282;22.494;2024-03-29T10:15:56;0.60;;;0.50;;
75649;SDS011;64245;51.282;22.494;2024-03-29T10:18:23;0.60;;;0.32;;
75649;SDS011;64245;51.282;22.494;2024-03-29T10:23:27;0.47;;;0.40;;
75649;SDS011;64245;51.282;22.494;2024-03-29T10:25:54;0.57;;;0.45;;
75649;SDS011;64245;51.282;22.494;2024-03-29T10:28:20;0.20;;;0.20;;
75649;SDS011;64245;51.282;22.494;2024-03-29T10:30:47;1.73;;;0.60;;
75649;SDS011;64245;51.282;22.494;2024-03-29T10:33:14;1.38;;;0.80;;
75649;SDS011;64245;51.282;22.494;2024-03-29T10:35:44;0.60;;;0.60;;
75649;SDS011;64245;51.282;22.494;2024-03-29T10:38:10;0.50;;;0.50;;
75649;SDS011;64245;51.282;22.494;2024-03-29T10:40:37;1.23;;;0.73;;
75649;SDS011;64245;51.282;22.494;2024-03-29T10:43:08;0.50;;;0.50;;
75649;SDS011;64245;51.282;22.494;2024-03-29T10:45:38;1.77;;;0.60;;
75649;SDS011;64245;51.282;22.494;2024-03-29T10:48:05;0.30;;;0.30;;
75649;SDS011;64245;51.282;22.494;2024-03-29T10:50:36;0.95;;;0.40;;
75649;SDS011;64245;51.282;22.494;2024-03-29T10:53:05;0.70;;;0.30;;
75649;SDS011;64245;51.282;22.494;2024-03-29T10:55:35;0.77;;;0.50;;
75649;SDS011;64245;51.282;22.494;2024-03-29T10:58:03;0.90;;;0.60;;
75649;SDS011;64245;51.282;22.494;2024-03-29T11:00:32;3.97;;;0.80;;
75649;SDS011;64245;51.282;22.494;2024-03-29T11:05:49;0.43;;;0.40;;
75649;SDS011;64245;51.282;22.494;2024-03-29T11:08:19;2.25;;;0.68;;
75649;SDS011;64245;51.282;22.494;2024-03-29T11:10:49;0.50;;;0.50;;
75649;SDS011;64245;51.282;22.494;2024-03-29T11:15:44;0.90;;;0.68;;
75649;SDS011;64245;51.282;22.494;2024-03-29T11:18:11;0.80;;;0.55;;
75649;SDS011;64245;51.282;22.494;2024-03-29T11:20:37;0.70;;;0.50;;
75649;SDS011;64245;51.282;22.494;2024-03-29T11:23:08;0.60;;;0.60;;
75649;SDS011;64245;51.282;22.494;2024-03-29T11:25:40;0.95;;;0.70;;
75649;SDS011;64245;51.282;22.494;2024-03-29T11:28:13;0.32;;;0.22;;
75649;SDS011;64245;51.282;22.494;2024-03-29T11:30:41;2.33;;;0.80;;
75649;SDS011;64245;51.282;22.494;2024-03-29T11:33:24;3.05;;;0.73;;
75649;SDS011;64245;51.282;22.494;2024-03-29T11:35:54;0.70;;;0.63;;
75649;SDS011;64245;51.282;22.494;2024-03-29T11:38:20;1.42;;;0.95;;
75649;SDS011;64245;51.282;22.494;2024-03-29T11:41:02;0.35;;;0.20;;
75649;SDS011;64245;51.282;22.494;2024-03-29T11:43:33;0.50;;;0.38;;
75649;SDS011;64245;51.282;22.494;2024-03-29T11:46:00;0.50;;;0.50;;
75649;SDS011;64245;51.282;22.494;2024-03-29T11:48:27;1.13;;;0.75;;
75649;SDS011;64245;51.282;22.494;2024-03-29T11:50:54;1.15;;;0.60;;
75649;SDS011;64245;51.282;22.494;2024-03-29T11:53:20;1.27;;;0.63;;
75649;SDS011;64245;51.282;22.494;2024-03-29T11:55:46;0.77;;;0.50;;
75649;SDS011;64245;51.282;22.494;2024-03-29T11:58:25;0.55;;;0.40;;
75649;SDS011;64245;51.282;22.494;2024-03-29T12:00:52;0.40;;;0.40;;
75649;SDS011;64245;51.282;22.494;2024-03-29T12:03:20;0.77;;;0.57;;
75649;SDS011;64245;51.282;22.494;2024-03-29T12:05:50;1.15;;;0.30;;
75649;SDS011;64245;51.282;22.494;2024-03-29T12:08:20;2.70;;;0.73;;
75649;SDS011;64245;51.282;22.494;2024-03-29T12:10:47;1.55;;;0.47;;
75649;SDS011;64245;51.282;22.494;2024-03-29T12:13:15;1.48;;;1.02;;
75649;SDS011;64245;51.282;22.494;2024-03-29T12:15:41;0.55;;;0.35;;
75649;SDS011;64245;51.282;22.494;2024-03-29T12:18:08;0.60;;;0.40;;
75649;SDS011;64245;51.282;22.494;2024-03-29T12:20:34;0.50;;;0.20;;
75649;SDS011;64245;51.282;22.494;2024-03-29T12:23:03;0.30;;;0.30;;
75649;SDS011;64245;51.282;22.494;2024-03-29T12:25:33;1.55;;;0.50;;
75649;SDS011;64245;51.282;22.494;2024-03-29T12:28:00;0.43;;;0.43;;
75649;SDS011;64245;51.282;22.494;2024-03-29T12:30:26;0.30;;;0.20;;
75649;SDS011;64245;51.282;22.494;2024-03-29T12:33:00;0.85;;;0.38;;
75649;SDS011;64245;51.282;22.494;2024-03-29T12:35:29;1.55;;;0.75;;
75649;SDS011;64245;51.282;22.494;2024-03-29T12:37:57;0.77;;;0.38;;
75649;SDS011;64245;51.282;22.494;2024-03-29T12:40:25;1.13;;;0.50;;
75649;SDS011;64245;51.282;22.494;2024-03-29T12:42:55;0.60;;;0.22;;
75649;SDS011;64245;51.282;22.494;2024-03-29T12:47:49;1.33;;;0.40;;
75649;SDS011;64245;51.282;22.494;2024-03-29T12:50:19;0.17;;;0.17;;
75649;SDS011;64245;51.282;22.494;2024-03-29T12:52:56;0.60;;;0.50;;
75649;SDS011;64245;51.282;22.494;2024-03-29T12:55:27;0.90;;;0.32;;
75649;SDS011;64245;51.282;22.494;2024-03-29T12:58:04;0.93;;;0.22;;
75649;SDS011;64245;51.282;22.494;2024-03-29T13:00:33;0.80;;;0.40;;
75649;SDS011;64245;51.282;22.494;2024-03-29T13:03:00;0.40;;;0.30;;
75649;SDS011;64245;51.282;22.494;2024-03-29T13:05:26;0.17;;;0.17;;
75649;SDS011;64245;51.282;22.494;2024-03-29T13:07:55;0.22;;;0.22;;
75649;SDS011;64245;51.282;22.494;2024-03-29T13:10:22;1.08;;;0.40;;
75649;SDS011;64245;51.282;22.494;2024-03-29T13:12:48;0.20;;;0.20;;
75649;SDS011;64245;51.282;22.494;2024-03-29T13:15:21;1.00;;;0.30;;
75649;SDS011;64245;51.282;22.494;2024-03-29T13:17:50;0.95;;;0.50;;
75649;SDS011;64245;51.282;22.494;2024-03-29T13:20:17;1.38;;;0.22;;
75649;SDS011;64245;51.282;22.494;2024-03-29T13:22:44;1.88;;;0.22;;
75649;SDS011;64245;51.282;22.494;2024-03-29T13:25:12;0.40;;;0.40;;
75649;SDS011;64245;51.282;22.494;2024-03-29T13:27:42;0.73;;;0.20;;
75649;SDS011;64245;51.282;22.494;2024-03-29T13:30:10;0.75;;;0.28;;
75649;SDS011;64245;51.282;22.494;2024-03-29T13:32:38;1.38;;;0.30;;
75649;SDS011;64245;51.282;22.494;2024-03-29T13:35:10;1.63;;;0.95;;
75649;SDS011;64245;51.282;22.494;2024-03-29T13:37:38;1.48;;;0.30;;
75649;SDS011;64245;51.282;22.494;2024-03-29T13:40:06;0.20;;;0.20;;
75649;SDS011;64245;51.282;22.494;2024-03-29T13:42:36;0.63;;;0.40;;
75649;SDS011;64245;51.282;22.494;2024-03-29T13:45:02;0.65;;;0.38;;
75649;SDS011;64245;51.282;22.494;2024-03-29T13:47:29;0.80;;;0.40;;
75649;SDS011;64245;51.282;22.494;2024-03-29T13:49:55;0.45;;;0.30;;
75649;SDS011;64245;51.282;22.494;2024-03-29T13:52:22;0.63;;;0.30;;
75649;SDS011;64245;51.282;22.494;2024-03-29T13:54:48;0.47;;;0.38;;
75649;SDS011;64245;51.282;22.494;2024-03-29T13:57:16;1.10;;;0.20;;
75649;SDS011;64245;51.282;22.494;2024-03-29T13:59:45;0.82;;;0.32;;
75649;SDS011;64245;51.282;22.494;2024-03-29T14:02:12;0.85;;;0.20;;
75649;SDS011;64245;51.282;22.494;2024-03-29T14:07:06;0.15;;;0.15;;
75649;SDS011;64245;51.282;22.494;2024-03-29T14:09:34;0.35;;;0.20;;
75649;SDS011;64245;51.282;22.494;2024-03-29T14:12:01;0.10;;;0.10;;
75649;SDS011;64245;51.282;22.494;2024-03-29T14:14:27;0.30;;;0.30;;
75649;SDS011;64245;51.282;22.494;2024-03-29T14:16:53;2.85;;;0.40;;
75649;SDS011;64245;51.282;22.494;2024-03-29T14:19:19;0.65;;;0.28;;
75649;SDS011;64245;51.282;22.494;2024-03-29T14:21:45;0.20;;;0.15;;
75649;SDS011;64245;51.282;22.494;2024-03-29T14:24:10;0.68;;;0.40;;
75649;SDS011;64245;51.282;22.494;2024-03-29T14:26:37;1.15;;;0.13;;
75649;SDS011;64245;51.282;22.494;2024-03-29T14:29:04;1.30;;;0.22;;
75649;SDS011;64245;51.282;22.494;2024-03-29T14:31:32;0.25;;;0.20;;
75649;SDS011;64245;51.282;22.494;2024-03-29T14:33:58;1.02;;;0.20;;
75649;SDS011;64245;51.282;22.494;2024-03-29T14:36:24;0.50;;;0.22;;
75649;SDS011;64245;51.282;22.494;2024-03-29T14:38:50;1.13;;;0.30;;
75649;SDS011;64245;51.282;22.494;2024-03-29T14:41:17;1.67;;;0.95;;
75649;SDS011;64245;51.282;22.494;2024-03-29T14:43:43;0.15;;;0.10;;
75649;SDS011;64245;51.282;22.494;2024-03-29T14:46:12;0.40;;;0.30;;
75649;SDS011;64245;51.282;22.494;2024-03-29T14:48:37;0.38;;;0.30;;
75649;SDS011;64245;51.282;22.494;2024-03-29T14:51:03;0.20;;;0.10;;
75649;SDS011;64245;51.282;22.494;2024-03-29T14:53:29;0.20;;;0.17;;
75649;SDS011;64245;51.282;22.494;2024-03-29T14:55:55;0.95;;;0.57;;
75649;SDS011;64245;51.282;22.494;2024-03-29T14:58:21;0.70;;;0.43;;